»·PEaware :: N701GT KSAC-KRDD

N701GT :: KSAC-KRDD

FLIGHT INFORMATION

Flight Status: Arrived
Operator: Privately registered:
United States
More flights under this callsign
Pilot: Anonymous 17564 (17564)
Aircraft: CESSNA 310
(C310)
More flights by this aircraft type
Origin: KSAC Sacramento Executive
United States
Destination: KRDD Redding Mun
United States
More flights between these airports :: More routes between these airports
Route: EYPOF V23 RBL
File this flight plan on PilotEdge
Remarks: ASP4 Weather Gen (Real World)
Altitude:
(Current/Filed)
8,000ft
Speed:
(Current/Filed)
180kts
Departed: 03-Jun-18 05:42 PM
Arrived: 03-Jun-18 06:30 PM
Distance/Time
Traveled:
125nm/0:47
Distance/Time
To Go:
Arrived

Flight Plot

Page will automatically refresh every two minutes.

Flight plan parsing failed; only flown route is shown


Map Options




Map Legend


Flown Route
Filed Route
Departure Airport
Arrival Airport
Navaid (VOR, NDB)
Fix

Horizontal Profiles

Position Reports

Time Latitude Longitude Heading Altitude Ground
Speed
03-Jun-18 17:24 38.511807 -121.498135 213 27ft 0kts
03-Jun-18 17:25 38.511807 -121.498135 213 27ft 0kts
03-Jun-18 17:26 38.511807 -121.498135 213 27ft 0kts
03-Jun-18 17:27 38.511807 -121.498135 213 27ft 0kts
03-Jun-18 17:28 38.511807 -121.498135 213 27ft 0kts
03-Jun-18 17:29 38.511807 -121.498135 213 27ft 0kts
03-Jun-18 17:30 38.511807 -121.498135 213 27ft 0kts
03-Jun-18 17:31 38.511807 -121.498135 213 27ft 0kts
03-Jun-18 17:32 38.511807 -121.498135 213 27ft 0kts
03-Jun-18 17:33 38.511807 -121.498135 213 27ft 0kts
03-Jun-18 17:34 38.511807 -121.498135 213 27ft 0kts
03-Jun-18 17:35 38.511807 -121.498135 213 27ft 0kts
03-Jun-18 17:36 38.511755 -121.498170 192 27ft 2kts
03-Jun-18 17:37 38.512212 -121.496619 34 27ft 9kts
03-Jun-18 17:38 38.515860 -121.493594 31 27ft 13kts
03-Jun-18 17:39 38.517964 -121.491862 32 27ft 9kts
03-Jun-18 17:40 38.519184 -121.490462 96 27ft 0kts
03-Jun-18 17:41 38.519176 -121.490370 96 27ft 4kts
03-Jun-18 17:42 38.510736 -121.496380 218 175ft 101kts
03-Jun-18 17:43 38.479945 -121.520099 211 1263ft 143kts
03-Jun-18 17:44 38.447889 -121.544381 212 2023ft 137kts
03-Jun-18 17:45 38.449352 -121.578279 344 2529ft 136kts
03-Jun-18 17:46 38.483507 -121.589010 342 3468ft 119kts
03-Jun-18 17:47 38.520502 -121.599066 344 4544ft 152kts
03-Jun-18 17:48 38.564437 -121.610079 345 5487ft 168kts
03-Jun-18 17:49 38.609596 -121.621423 345 6377ft 163kts
03-Jun-18 17:50 38.654554 -121.632791 344 7310ft 170kts
03-Jun-18 17:51 38.701043 -121.644577 345 7998ft 183kts
03-Jun-18 17:52 38.752611 -121.657631 345 7984ft 194kts
03-Jun-18 17:53 38.803790 -121.670605 345 7982ft 184kts
03-Jun-18 17:54 38.854842 -121.683585 345 7981ft 194kts
03-Jun-18 17:55 38.905677 -121.698918 342 7988ft 189kts
03-Jun-18 17:56 38.956787 -121.715482 342 7982ft 184kts
03-Jun-18 17:57 39.007277 -121.731887 342 7984ft 195kts
03-Jun-18 17:58 39.058776 -121.748546 342 7983ft 186kts
03-Jun-18 17:59 39.108758 -121.764745 342 7986ft 184kts
03-Jun-18 18:00 39.158796 -121.780849 342 7982ft 185kts
03-Jun-18 18:01 39.208686 -121.797009 342 7989ft 185kts
03-Jun-18 18:02 39.258572 -121.813207 342 7994ft 186kts
03-Jun-18 18:03 39.310469 -121.830079 342 7977ft 197kts
03-Jun-18 18:04 39.361138 -121.852862 334 7996ft 192kts
03-Jun-18 18:05 39.411477 -121.878777 334 7988ft 200kts
03-Jun-18 18:06 39.462979 -121.905360 335 7984ft 201kts
03-Jun-18 18:07 39.514532 -121.931920 334 7983ft 201kts
03-Jun-18 18:08 39.565038 -121.958003 334 7995ft 191kts
03-Jun-18 18:09 39.614786 -121.983784 334 7997ft 196kts
03-Jun-18 18:10 39.664552 -122.009578 334 7995ft 191kts
03-Jun-18 18:11 39.713736 -122.035120 334 7992ft 189kts
03-Jun-18 18:12 39.762507 -122.060473 334 7991ft 190kts
03-Jun-18 18:13 39.811757 -122.086178 334 7996ft 189kts
03-Jun-18 18:14 39.860764 -122.111787 334 8007ft 190kts
03-Jun-18 18:15 39.911272 -122.138104 334 7984ft 201kts
03-Jun-18 18:16 39.962133 -122.164724 334 7999ft 194kts
03-Jun-18 18:17 40.011493 -122.190604 334 7993ft 191kts
03-Jun-18 18:18 40.061169 -122.216642 334 7994ft 191kts
03-Jun-18 18:19 40.111517 -122.238572 354 7992ft 193kts
03-Jun-18 18:20 40.166271 -122.245782 351 7971ft 203kts
03-Jun-18 18:21 40.221691 -122.253431 351 7980ft 200kts
03-Jun-18 18:22 40.277437 -122.261196 351 7976ft 204kts
03-Jun-18 18:23 40.332999 -122.268931 351 7442ft 201kts
03-Jun-18 18:24 40.385938 -122.275772 355 5931ft 178kts
03-Jun-18 18:25 40.432117 -122.279751 0 4407ft 159kts
03-Jun-18 18:26 40.475108 -122.279636 1 2621ft 147kts
03-Jun-18 18:27 40.513921 -122.279236 1 1331ft 122kts
03-Jun-18 18:28 40.542495 -122.288482 266 1382ft 99kts
03-Jun-18 18:29 40.521989 -122.294867 180 566ft 85kts
03-Jun-18 18:30 40.508593 -122.294944 188 505ft 17kts
03-Jun-18 18:31 40.508305 -122.296380 227 505ft 2kts
03-Jun-18 18:32 40.508397 -122.299198 316 505ft 2kts
03-Jun-18 18:33 40.508407 -122.299225 283 505ft 0kts
03-Jun-18 18:34 40.508407 -122.299225 283 505ft 0kts
03-Jun-18 18:35 40.508407 -122.299225 283 505ft 0kts
03-Jun-18 18:36 40.508407 -122.299225 283 505ft 0kts
03-Jun-18 18:37 40.508407 -122.299225 283 505ft 0kts
03-Jun-18 18:38 40.508407 -122.299225 283 505ft 0kts
03-Jun-18 18:39 40.508407 -122.299225 283 505ft 0kts
03-Jun-18 18:40 40.508407 -122.299225 283 505ft 0kts
03-Jun-18 18:41 40.508407 -122.299225 283 505ft 0kts
03-Jun-18 18:42 40.508407 -122.299225 283 505ft 0kts
03-Jun-18 18:43 40.508407 -122.299225 283 505ft 0kts
03-Jun-18 18:44 40.508407 -122.299225 283 505ft 0kts

Navigation Log

Ident Type
Flight plan parsing failed, navigation log unavailable